createdAt,value
2022-08-22T00:00:51.109Z,90.01
2022-08-22T00:01:51.114Z,90.31
2022-08-22T00:02:42.243Z,70.50
2022-08-22T00:02:52.978Z,71.67
2022-08-22T00:02:58.168Z,66.64
2022-08-22T00:03:00.886Z,80.84
2022-08-22T00:03:01.581Z,70.53
2022-08-22T00:03:02.619Z,75.67
2022-08-22T00:03:03.387Z,81.69
2022-08-22T00:03:06.869Z,87.14
2022-08-22T00:03:07.363Z,83.45
2022-08-22T00:03:11.735Z,87.59
2022-08-22T00:03:16.108Z,90.52
2022-08-22T00:03:53.099Z,90.52
2022-08-22T00:04:51.102Z,90.72
2022-08-22T00:05:51.073Z,91.13
2022-08-22T00:06:51.061Z,90.92
2022-08-22T00:07:51.060Z,90.62
2022-08-22T00:08:51.069Z,91.13
2022-08-22T00:09:51.031Z,91.74
2022-08-22T00:10:51.023Z,91.43
2022-08-22T00:11:51.016Z,91.23
2022-08-22T00:12:51.008Z,91.33
2022-08-22T00:13:54.825Z,91.53
2022-08-22T00:14:51.988Z,90.92
2022-08-22T00:15:50.994Z,90.52
2022-08-22T00:16:50.983Z,90.72
2022-08-22T00:17:50.982Z,90.52
2022-08-22T00:18:50.988Z,90.56
2022-08-22T00:19:50.953Z,91.78
2022-08-22T00:20:50.947Z,91.58
2022-08-22T00:21:50.939Z,91.99
2022-08-22T00:22:50.931Z,92.19
2022-08-22T00:23:50.952Z,91.58
2022-08-22T00:24:50.916Z,91.78
2022-08-22T00:25:50.911Z,91.27
2022-08-22T00:26:51.899Z,90.05
2022-08-22T00:27:50.896Z,90.42
2022-08-22T00:28:50.911Z,90.22
2022-08-22T00:29:50.875Z,90.11
2022-08-22T00:30:50.871Z,90.62
2022-08-22T00:31:50.863Z,90.01
2022-08-22T00:32:50.855Z,89.61
2022-08-22T00:33:50.868Z,89.40
2022-08-22T00:34:50.836Z,89.40
2022-08-22T00:35:50.847Z,89.40
2022-08-22T00:36:50.819Z,89.20
2022-08-22T00:37:50.833Z,89.70
2022-08-22T00:38:50.832Z,89.36
2022-08-22T00:39:50.847Z,89.40
2022-08-22T00:40:50.787Z,89.50
2022-08-22T00:41:50.778Z,89.91
2022-08-22T00:42:50.773Z,89.66
2022-08-22T00:43:50.787Z,89.30
2022-08-22T00:44:50.758Z,89.30
2022-08-22T00:45:50.767Z,89.20
2022-08-22T00:46:50.741Z,90.31
2022-08-22T00:47:50.760Z,90.56
2022-08-22T00:48:50.754Z,90.25
2022-08-22T00:49:50.713Z,90.81
2022-08-22T00:50:51.704Z,92.54
2022-08-22T00:51:50.701Z,93.70
2022-08-22T00:52:50.691Z,93.29
2022-08-22T00:53:50.709Z,93.70
2022-08-22T00:54:50.683Z,93.40
2022-08-22T00:55:50.683Z,93.25
2022-08-22T00:56:50.659Z,93.29
2022-08-22T00:57:50.681Z,93.50
2022-08-22T00:58:50.672Z,93.70
2022-08-22T00:59:50.639Z,92.79
2022-08-22T01:00:50.662Z,92.44
2022-08-22T01:01:50.619Z,92.13
2022-08-22T01:02:52.714Z,92.44
2022-08-22T01:03:51.629Z,91.93
2022-08-22T01:04:50.592Z,91.31
2022-08-22T01:05:50.583Z,91.52
2022-08-22T01:06:50.579Z,91.83
2022-08-22T01:07:50.566Z,91.72
2022-08-22T01:08:50.590Z,92.07
2022-08-22T01:09:50.553Z,92.79
2022-08-22T01:10:50.552Z,93.09
2022-08-22T01:11:50.538Z,93.44
2022-08-22T01:12:50.524Z,93.50
2022-08-22T01:13:50.545Z,93.70
2022-08-22T01:14:50.511Z,93.74
2022-08-22T01:15:50.505Z,93.50
2022-08-22T01:16:50.495Z,93.40
2022-08-22T01:17:50.490Z,93.19
2022-08-22T01:18:50.524Z,93.19
2022-08-22T01:19:50.478Z,93.19
2022-08-22T01:20:50.472Z,93.09
2022-08-22T01:21:50.455Z,92.79
2022-08-22T01:22:50.447Z,91.97
2022-08-22T01:23:50.466Z,92.11
2022-08-22T01:24:50.434Z,92.32
2022-08-22T01:25:50.960Z,92.42
2022-08-22T01:26:50.422Z,92.27
2022-08-22T01:27:50.417Z,91.66
2022-08-22T01:28:50.432Z,91.77
2022-08-22T01:29:50.394Z,92.38
2022-08-22T01:30:50.399Z,91.97
2022-08-22T01:31:50.378Z,91.16
2022-08-22T01:32:50.377Z,91.97
2022-08-22T01:33:51.390Z,91.46
2022-08-22T01:34:50.354Z,91.36
2022-08-22T01:35:50.351Z,91.46
2022-08-22T01:36:50.333Z,91.16
2022-08-22T01:37:50.335Z,91.16
2022-08-22T01:38:50.353Z,91.46
2022-08-22T01:39:50.367Z,91.26
2022-08-22T01:40:53.898Z,91.87
2022-08-22T01:41:50.306Z,92.38
2022-08-22T01:42:50.291Z,92.42
2022-08-22T01:43:59.637Z,92.42
2022-08-22T01:44:51.270Z,92.52
2022-08-22T01:45:51.305Z,92.57
2022-08-22T01:46:50.267Z,92.32
2022-08-22T01:47:50.258Z,91.91
2022-08-22T01:49:23.878Z,91.61
2022-08-22T01:49:50.240Z,92.72
2022-08-22T01:50:50.234Z,92.93
2022-08-22T01:51:50.233Z,92.42
2022-08-22T01:52:50.222Z,92.48
2022-08-22T01:53:50.211Z,91.71
2022-08-22T01:54:50.229Z,91.81
2022-08-22T01:55:50.201Z,91.91
2022-08-22T01:56:50.194Z,92.52
2022-08-22T01:57:50.172Z,92.22
2022-08-22T01:58:51.186Z,92.52
2022-08-22T01:59:50.207Z,92.32
2022-08-22T02:00:50.190Z,92.32
2022-08-22T02:01:50.170Z,93.24
2022-08-22T02:02:50.175Z,93.48
2022-08-22T02:03:50.147Z,94.20
2022-08-22T02:04:50.154Z,94.81
2022-08-22T02:05:50.117Z,95.06
2022-08-22T02:06:50.120Z,95.26
2022-08-22T02:07:50.106Z,95.47
2022-08-22T02:08:50.098Z,95.06
2022-08-22T02:09:50.120Z,95.06
2022-08-22T02:10:50.085Z,95.57
2022-08-22T02:11:50.066Z,95.47
2022-08-22T02:12:51.066Z,95.47
2022-08-22T02:13:50.091Z,95.47
2022-08-22T02:14:50.053Z,95.47
2022-08-22T02:15:50.052Z,95.67
2022-08-22T02:16:50.045Z,95.57
2022-08-22T02:17:50.034Z,95.57
2022-08-22T02:18:50.058Z,95.57
2022-08-22T02:19:50.015Z,95.51
2022-08-22T02:20:50.016Z,95.67
2022-08-22T02:21:50.000Z,95.41
2022-08-22T02:22:49.993Z,95.47
2022-08-22T02:23:50.012Z,95.77
2022-08-22T02:24:49.979Z,95.36
2022-08-22T02:25:49.973Z,96.08
2022-08-22T02:26:49.963Z,95.97
2022-08-22T02:27:49.963Z,95.57
2022-08-22T02:28:56.503Z,95.77
2022-08-22T02:29:50.963Z,95.77
2022-08-22T02:30:49.928Z,95.47
2022-08-22T02:31:49.919Z,95.36
2022-08-22T02:32:49.915Z,95.47
2022-08-22T02:33:49.920Z,95.36
2022-08-22T02:34:49.932Z,95.52
2022-08-22T02:35:49.894Z,95.93
2022-08-22T02:36:49.885Z,95.36
2022-08-22T02:37:49.877Z,95.57
2022-08-22T02:38:49.865Z,95.32
2022-08-22T02:39:49.935Z,94.95
2022-08-22T02:40:49.853Z,95.06
2022-08-22T02:41:49.841Z,95.26
2022-08-22T02:42:49.840Z,94.85
2022-08-22T02:43:49.838Z,95.47
2022-08-22T02:44:49.839Z,95.57
2022-08-22T02:45:49.811Z,95.47
2022-08-22T02:46:49.805Z,95.26
2022-08-22T02:47:49.797Z,95.47
2022-08-22T02:48:49.791Z,95.36
2022-08-22T02:49:49.807Z,95.36
2022-08-22T02:50:49.775Z,94.95
2022-08-22T02:51:49.767Z,95.06
2022-08-22T02:52:49.753Z,94.59
2022-08-22T02:53:49.752Z,95.10
2022-08-22T02:54:49.769Z,95.81
2022-08-22T02:55:49.731Z,96.73
2022-08-22T02:56:49.726Z,96.73
2022-08-22T02:57:49.714Z,96.73
2022-08-22T02:58:49.708Z,96.73
2022-08-22T02:59:49.718Z,96.63
2022-08-22T03:00:49.708Z,96.73
2022-08-22T03:01:49.679Z,96.43
2022-08-22T03:02:49.677Z,96.84
2022-08-22T03:03:49.665Z,96.94
2022-08-22T03:04:49.683Z,96.33
2022-08-22T03:05:49.654Z,95.65
2022-08-22T03:06:49.649Z,96.27
2022-08-22T03:07:49.627Z,96.88
2022-08-22T03:08:51.020Z,96.78
2022-08-22T03:09:49.647Z,96.78
2022-08-22T03:10:49.615Z,97.70
2022-08-22T03:11:49.607Z,97.60
2022-08-22T03:12:49.595Z,97.64
2022-08-22T03:13:49.588Z,97.60
2022-08-22T03:14:49.603Z,97.49
2022-08-22T03:15:49.706Z,96.88
2022-08-22T03:16:49.570Z,96.58
2022-08-22T03:17:49.559Z,96.88
2022-08-22T03:18:49.550Z,96.42
2022-08-22T03:19:49.568Z,96.51
2022-08-22T03:20:49.539Z,96.92
2022-08-22T03:21:49.524Z,96.83
2022-08-22T03:22:49.515Z,96.72
2022-08-22T03:23:49.504Z,97.54
2022-08-22T03:24:50.537Z,97.64
2022-08-22T03:25:49.496Z,97.44
2022-08-22T03:26:49.490Z,97.64
2022-08-22T03:27:50.086Z,97.64
2022-08-22T03:28:59.585Z,97.54
2022-08-22T03:29:50.489Z,97.44
2022-08-22T03:30:49.462Z,97.74
2022-08-22T03:31:49.461Z,97.74
2022-08-22T03:32:49.438Z,97.74
2022-08-22T03:33:49.435Z,97.13
2022-08-22T03:34:49.449Z,96.83
2022-08-22T03:35:49.418Z,96.62
2022-08-22T03:36:49.411Z,96.83
2022-08-22T03:37:49.406Z,96.62
2022-08-22T03:38:49.392Z,97.54
2022-08-22T03:39:49.492Z,97.85
2022-08-22T03:40:49.380Z,97.64
2022-08-22T03:41:49.368Z,97.85
2022-08-22T03:42:49.363Z,97.74
2022-08-22T03:43:49.350Z,97.85
2022-08-22T03:44:49.375Z,98.36
2022-08-22T03:45:49.338Z,98.05
2022-08-22T03:46:49.330Z,98.05
2022-08-22T03:47:49.319Z,98.46
2022-08-22T03:48:49.320Z,98.46
2022-08-22T03:49:49.340Z,97.95
2022-08-22T03:50:49.302Z,97.74
2022-08-22T03:51:50.288Z,97.74
2022-08-22T03:52:49.282Z,96.92
2022-08-22T03:53:49.278Z,96.83
2022-08-22T03:54:49.277Z,96.42
2022-08-22T03:55:49.289Z,96.56
2022-08-22T03:56:49.250Z,96.46
2022-08-22T03:57:49.244Z,96.46
2022-08-22T03:58:49.238Z,97.08
2022-08-22T03:59:49.231Z,96.77
2022-08-22T04:00:49.322Z,96.42
2022-08-22T04:01:49.214Z,96.11
2022-08-22T04:02:49.209Z,96.11
2022-08-22T04:03:49.198Z,96.21
2022-08-22T04:04:49.187Z,96.31
2022-08-22T04:05:49.208Z,96.01
2022-08-22T04:06:49.182Z,95.60
2022-08-22T04:07:49.166Z,95.09
2022-08-22T04:08:49.162Z,95.29
2022-08-22T04:09:49.156Z,95.70
2022-08-22T04:10:49.172Z,95.85
2022-08-22T04:11:49.137Z,95.34
2022-08-22T04:12:49.130Z,95.23
2022-08-22T04:13:49.120Z,95.75
2022-08-22T04:14:49.111Z,95.59
2022-08-22T04:15:49.127Z,95.69
2022-08-22T04:16:49.401Z,95.48
2022-08-22T04:17:49.086Z,95.69
2022-08-22T04:18:49.080Z,95.59
2022-08-22T04:19:49.089Z,95.79
2022-08-22T04:20:49.094Z,95.63
2022-08-22T04:21:49.066Z,96.04
2022-08-22T04:22:49.058Z,96.25
2022-08-22T04:23:49.047Z,95.94
2022-08-22T04:24:52.436Z,96.14
2022-08-22T04:25:49.065Z,96.10
2022-08-22T04:26:49.024Z,96.34
2022-08-22T04:27:49.018Z,96.25
2022-08-22T04:28:49.007Z,96.25
2022-08-22T04:29:49.022Z,96.14
2022-08-22T04:30:49.038Z,96.14
2022-08-22T04:31:48.997Z,96.55
2022-08-22T04:32:48.983Z,96.86
2022-08-22T04:33:48.980Z,96.55
2022-08-22T04:34:48.968Z,96.86
2022-08-22T04:35:48.988Z,96.86
2022-08-22T04:36:48.961Z,96.96
2022-08-22T04:37:48.947Z,96.96
2022-08-22T04:38:48.934Z,96.96
2022-08-22T04:39:48.987Z,96.96
2022-08-22T04:40:48.954Z,97.06
2022-08-22T04:41:48.908Z,97.16
2022-08-22T04:42:48.903Z,96.61
2022-08-22T04:43:48.900Z,96.92
2022-08-22T04:44:48.893Z,96.71
2022-08-22T04:45:48.906Z,96.41
2022-08-22T04:46:48.874Z,96.41
2022-08-22T04:47:53.964Z,96.15
2022-08-22T04:48:49.856Z,96.36
2022-08-22T04:49:48.850Z,96.05
2022-08-22T04:50:48.882Z,96.26
2022-08-22T04:51:48.839Z,96.10
2022-08-22T04:52:48.833Z,96.05
2022-08-22T04:53:48.825Z,96.01
2022-08-22T04:54:48.818Z,95.10
2022-08-22T04:55:48.833Z,93.63
2022-08-22T04:56:48.797Z,93.07
2022-08-22T04:57:48.791Z,91.71
2022-08-22T04:58:48.782Z,89.63
2022-08-22T04:59:48.784Z,88.36
2022-08-22T05:00:48.803Z,87.71
2022-08-22T05:01:48.820Z,87.41
2022-08-22T05:02:48.749Z,86.86
2022-08-22T05:03:48.742Z,86.65
2022-08-22T05:04:48.740Z,84.23
2022-08-22T05:05:48.758Z,82.78
2022-08-22T05:06:48.727Z,83.69
2022-08-22T05:07:48.716Z,82.94
2022-08-22T05:08:53.733Z,82.67
2022-08-22T05:09:49.697Z,82.98
2022-08-22T05:10:48.722Z,83.34
2022-08-22T05:11:48.680Z,80.49
2022-08-22T05:12:48.678Z,79.38
2022-08-22T05:13:48.665Z,78.63
2022-08-22T05:14:48.666Z,76.93
2022-08-22T05:15:48.644Z,75.68
2022-08-22T05:16:48.670Z,75.58
2022-08-22T05:17:48.639Z,76.05
2022-08-22T05:18:48.626Z,76.02
2022-08-22T05:19:48.632Z,74.26
2022-08-22T05:20:49.335Z,73.28
2022-08-22T05:21:48.634Z,74.54
2022-08-22T05:22:48.601Z,76.94
2022-08-22T05:23:48.598Z,80.12
2022-08-22T05:24:48.595Z,79.98
2022-08-22T05:25:48.576Z,79.47
2022-08-22T05:26:48.592Z,79.44
2022-08-22T05:27:48.558Z,79.34
2022-08-22T05:28:52.623Z,78.73
2022-08-22T05:29:49.545Z,80.12
2022-08-22T05:30:48.533Z,81.11
2022-08-22T05:31:48.552Z,81.52
2022-08-22T05:32:48.527Z,81.52
2022-08-22T05:33:48.519Z,81.27
2022-08-22T05:34:48.513Z,81.38
2022-08-22T05:35:50.777Z,81.04
2022-08-22T05:36:49.520Z,79.54
2022-08-22T05:37:48.481Z,78.28
2022-08-22T05:38:48.472Z,78.19
2022-08-22T05:39:48.539Z,77.54
2022-08-22T05:40:48.464Z,78.12
2022-08-22T05:41:48.483Z,78.75
2022-08-22T05:42:48.446Z,78.38
2022-08-22T05:43:48.439Z,75.95
2022-08-22T05:44:48.434Z,74.26
2022-08-22T05:45:48.419Z,73.32
2022-08-22T05:46:48.436Z,72.07
2022-08-22T05:47:48.420Z,71.80
2022-08-22T05:48:48.397Z,72.64
2022-08-22T05:49:48.393Z,72.24
2022-08-22T05:50:50.948Z,72.88
2022-08-22T05:51:49.401Z,74.26
2022-08-22T05:52:48.372Z,76.79
2022-08-22T05:53:48.365Z,78.22
2022-08-22T05:54:48.360Z,79.71
2022-08-22T05:55:48.346Z,79.91
2022-08-22T05:56:48.365Z,81.24
2022-08-22T05:57:48.336Z,83.42
2022-08-22T05:58:48.324Z,85.70
2022-08-22T05:59:48.319Z,87.41
2022-08-22T06:00:48.307Z,88.98
2022-08-22T06:01:48.337Z,89.28
2022-08-22T06:02:48.290Z,89.03
2022-08-22T06:03:48.289Z,89.24
2022-08-22T06:04:48.282Z,89.91
2022-08-22T06:05:48.266Z,89.05
2022-08-22T06:06:48.288Z,89.05
2022-08-22T06:07:48.250Z,88.56
2022-08-22T06:08:48.232Z,87.26
2022-08-22T06:09:49.242Z,85.50
2022-08-22T06:10:48.455Z,83.40
2022-08-22T06:11:51.763Z,84.83
2022-08-22T06:12:48.209Z,83.77
2022-08-22T06:13:48.208Z,83.91
2022-08-22T06:14:48.207Z,85.78
2022-08-22T06:15:48.537Z,85.68
2022-08-22T06:16:48.916Z,85.72
2022-08-22T06:17:48.175Z,86.22
2022-08-22T06:18:48.177Z,87.51
2022-08-22T06:19:48.158Z,86.45
2022-08-22T06:20:48.159Z,84.38
2022-08-22T06:21:48.171Z,84.38
2022-08-22T06:22:48.139Z,84.83
2022-08-22T06:23:48.129Z,85.74
2022-08-22T06:24:48.118Z,85.70
2022-08-22T06:25:48.111Z,85.36
2022-08-22T06:26:48.930Z,84.30
2022-08-22T06:27:49.095Z,83.69
2022-08-22T06:28:54.726Z,82.54
2022-08-22T06:29:49.078Z,83.04
2022-08-22T06:30:48.069Z,82.58
2022-08-22T06:31:48.093Z,83.59
2022-08-22T06:33:00.248Z,84.50
2022-08-22T06:33:49.045Z,84.61
2022-08-22T06:34:48.043Z,84.20
2022-08-22T06:35:48.030Z,83.80
2022-08-22T06:36:48.051Z,83.96
2022-08-22T06:37:48.032Z,83.65
2022-08-22T06:38:48.007Z,83.65
2022-08-22T06:39:48.021Z,83.65
2022-08-22T06:40:47.994Z,83.55
2022-08-22T06:41:48.007Z,83.01
2022-08-22T06:42:47.973Z,82.70
2022-08-22T06:43:47.964Z,82.40
2022-08-22T06:44:47.958Z,83.15
2022-08-22T06:45:47.954Z,83.35
2022-08-22T06:46:47.967Z,83.55
2022-08-22T06:47:50.138Z,82.60
2022-08-22T06:48:47.935Z,83.25
2022-08-22T06:49:47.923Z,83.83
2022-08-22T06:50:47.913Z,84.34
2022-08-22T06:51:47.930Z,84.24
2022-08-22T06:52:47.912Z,83.69
2022-08-22T06:53:48.377Z,83.65
2022-08-22T06:54:47.883Z,83.55
2022-08-22T06:55:47.870Z,84.00
2022-08-22T06:56:47.891Z,84.77
2022-08-22T06:57:47.860Z,83.92
2022-08-22T06:58:47.847Z,82.12
2022-08-22T06:59:47.838Z,80.87
2022-08-22T07:00:58.809Z,82.08
2022-08-22T07:01:49.968Z,80.36
2022-08-22T07:02:47.825Z,80.77
2022-08-22T07:03:47.817Z,81.82
2022-08-22T07:04:47.801Z,81.25
2022-08-22T07:05:47.797Z,82.62
2022-08-22T07:06:47.820Z,82.42
2022-08-22T07:07:47.782Z,81.17
2022-08-22T07:08:47.775Z,79.66
2022-08-22T07:09:47.767Z,78.81
2022-08-22T07:10:47.765Z,78.91
2022-08-22T07:11:47.777Z,78.61
2022-08-22T07:12:47.742Z,79.58
2022-08-22T07:13:47.746Z,80.53
2022-08-22T07:14:47.727Z,79.99
2022-08-22T07:15:47.722Z,78.47
2022-08-22T07:16:47.739Z,79.82
2022-08-22T07:17:47.706Z,78.97
2022-08-22T07:18:47.700Z,78.88
2022-08-22T07:19:47.693Z,79.14
2022-08-22T07:20:47.684Z,78.09
2022-08-22T07:21:47.703Z,76.88
2022-08-22T07:22:47.669Z,77.95
2022-08-22T07:23:47.665Z,77.35
2022-08-22T07:24:47.651Z,76.44
2022-08-22T07:25:47.652Z,76.34
2022-08-22T07:26:47.662Z,77.01
2022-08-22T07:27:48.747Z,76.10
2022-08-22T07:28:51.612Z,77.42
2022-08-22T07:29:48.614Z,78.17
2022-08-22T07:30:47.604Z,79.94
2022-08-22T07:31:47.623Z,79.24
2022-08-22T07:32:47.597Z,78.66
2022-08-22T07:33:47.581Z,76.71
2022-08-22T07:34:47.577Z,75.67
2022-08-22T07:35:53.427Z,75.76
2022-08-22T07:36:48.585Z,75.36
2022-08-22T07:37:47.547Z,75.96
2022-08-22T07:38:47.542Z,75.43
2022-08-22T07:39:47.586Z,74.86
2022-08-22T07:40:47.530Z,75.70
2022-08-22T07:41:47.559Z,75.84
2022-08-22T07:42:47.697Z,75.43
2022-08-22T07:43:47.505Z,76.44
2022-08-22T07:44:47.500Z,77.62
2022-08-22T07:45:47.493Z,75.40
2022-08-22T07:46:47.514Z,75.60
2022-08-22T07:47:49.734Z,74.36
2022-08-22T07:49:07.670Z,75.74
2022-08-22T07:50:15.317Z,75.50
2022-08-22T07:50:47.466Z,75.67
2022-08-22T07:51:47.446Z,75.39
2022-08-22T07:52:47.466Z,73.61
2022-08-22T07:53:47.438Z,74.38
2022-08-22T07:54:47.420Z,72.57
2022-08-22T07:55:49.622Z,71.83
2022-08-22T07:56:48.403Z,71.83
2022-08-22T07:57:47.426Z,71.70
2022-08-22T07:58:47.390Z,70.76
2022-08-22T07:59:47.384Z,70.76
2022-08-22T08:00:47.406Z,69.89
2022-08-22T08:01:47.425Z,69.76
2022-08-22T08:02:47.411Z,68.68
2022-08-22T08:03:47.361Z,68.65
2022-08-22T08:04:47.349Z,70.26
2022-08-22T08:05:47.336Z,67.35
2022-08-22T08:06:47.334Z,69.85
2022-08-22T08:07:47.349Z,69.02
2022-08-22T08:08:47.316Z,68.35
2022-08-22T08:09:47.308Z,66.61
2022-08-22T08:10:47.306Z,67.18
2022-08-22T08:11:47.302Z,66.99
2022-08-22T08:13:00.575Z,67.08
2022-08-22T08:13:48.269Z,66.58
2022-08-22T08:14:47.266Z,66.45
2022-08-22T08:15:47.253Z,65.31
2022-08-22T08:16:47.245Z,65.05
2022-08-22T08:17:47.263Z,64.92
2022-08-22T08:18:47.237Z,63.22
2022-08-22T08:19:47.221Z,63.98
2022-08-22T08:20:47.213Z,66.15
2022-08-22T08:21:47.217Z,64.45
2022-08-22T08:22:47.230Z,65.05
2022-08-22T08:23:47.222Z,64.78
2022-08-22T08:24:47.183Z,63.28
2022-08-22T08:25:47.180Z,64.28
2022-08-22T08:26:48.165Z,62.82
2022-08-22T08:27:52.576Z,62.99
2022-08-22T08:28:48.146Z,62.06
2022-08-22T08:29:47.144Z,62.73
2022-08-22T08:30:47.135Z,62.60
2022-08-22T08:31:47.142Z,61.98
2022-08-22T08:32:47.148Z,61.22
2022-08-22T08:33:47.138Z,60.29
2022-08-22T08:34:47.118Z,59.27
2022-08-22T08:36:02.018Z,59.86
2022-08-22T08:36:49.080Z,57.84
2022-08-22T08:37:48.105Z,57.57
2022-08-22T08:38:47.073Z,57.60
2022-08-22T08:39:47.120Z,58.33
2022-08-22T08:40:48.516Z,60.92
2022-08-22T08:41:47.077Z,59.95
2022-08-22T08:42:47.080Z,58.72
2022-08-22T08:43:47.053Z,61.08
2022-08-22T08:44:47.026Z,62.29
2022-08-22T08:45:47.021Z,63.09
2022-08-22T08:46:55.181Z,63.96
2022-08-22T08:47:48.031Z,62.43
2022-08-22T08:48:46.997Z,63.13
2022-08-22T08:49:46.987Z,63.07
2022-08-22T08:50:46.984Z,60.82
2022-08-22T08:51:46.990Z,59.49
2022-08-22T08:52:51.021Z,59.79
2022-08-22T08:53:48.958Z,60.03
2022-08-22T08:54:47.207Z,58.39
2022-08-22T08:55:46.944Z,58.36
2022-08-22T08:56:47.208Z,58.41
2022-08-22T08:57:46.952Z,59.70
2022-08-22T08:58:46.921Z,58.39
2022-08-22T08:59:46.911Z,57.66
2022-08-22T09:00:48.945Z,57.53
2022-08-22T09:01:47.007Z,56.34
2022-08-22T09:02:47.911Z,57.24
2022-08-22T09:03:46.897Z,56.14
2022-08-22T09:04:46.882Z,56.44
2022-08-22T09:05:47.168Z,55.65
2022-08-22T09:07:47.960Z,57.73
2022-08-22T09:08:46.839Z,56.02
2022-08-22T09:09:46.840Z,56.21
2022-08-22T09:10:47.828Z,56.09
2022-08-22T09:11:46.836Z,55.29
2022-08-22T09:12:59.766Z,54.70
2022-08-22T09:13:47.800Z,55.15
2022-08-22T09:14:46.794Z,53.96
2022-08-22T09:15:58.663Z,54.47
2022-08-22T09:16:51.272Z,53.68
2022-08-22T09:17:47.801Z,54.38
2022-08-22T09:18:46.771Z,54.77
2022-08-22T09:19:46.757Z,54.15
2022-08-22T09:20:46.747Z,54.47
2022-08-22T09:21:46.764Z,54.25
2022-08-22T09:22:50.605Z,54.64
2022-08-22T09:23:46.748Z,52.24
2022-08-22T09:24:47.715Z,52.24
2022-08-22T09:25:46.721Z,51.42
2022-08-22T09:26:46.701Z,50.41
2022-08-22T09:27:46.722Z,50.93
2022-08-22T09:28:46.687Z,52.44
2022-08-22T09:29:55.147Z,52.73
2022-08-22T09:30:47.678Z,51.20
2022-08-22T09:31:52.070Z,51.37
2022-08-22T09:32:47.679Z,49.89
2022-08-22T09:33:46.673Z,49.10
2022-08-22T09:34:47.753Z,50.66
2022-08-22T09:35:46.639Z,50.46
2022-08-22T09:36:46.627Z,49.54
2022-08-22T09:37:46.689Z,49.15
2022-08-22T09:38:47.827Z,48.85
2022-08-22T09:39:46.636Z,47.19
2022-08-22T09:40:46.596Z,48.01
2022-08-22T09:41:46.594Z,49.12
2022-08-22T09:42:47.606Z,49.64
2022-08-22T09:43:48.716Z,49.42
2022-08-22T09:44:46.572Z,50.31
2022-08-22T09:45:47.067Z,50.11
2022-08-22T09:46:46.557Z,49.22
2022-08-22T09:47:46.582Z,48.30
2022-08-22T09:48:46.540Z,47.99
2022-08-22T09:49:46.539Z,47.59
2022-08-22T09:50:46.548Z,47.17
2022-08-22T09:51:46.543Z,49.05
2022-08-22T09:52:46.539Z,47.15
2022-08-22T09:53:46.525Z,47.52
2022-08-22T09:54:46.497Z,47.22
2022-08-22T09:55:46.488Z,47.52
2022-08-22T09:56:47.102Z,47.81
2022-08-22T09:57:46.498Z,47.00
2022-08-22T09:58:46.466Z,45.94
2022-08-22T09:59:46.463Z,46.44
2022-08-22T10:00:46.479Z,47.05
2022-08-22T10:01:47.502Z,46.26
2022-08-22T10:02:50.376Z,47.37
2022-08-22T10:03:46.446Z,47.09
2022-08-22T10:04:46.418Z,48.27
2022-08-22T10:05:46.411Z,49.17
2022-08-22T10:06:46.406Z,49.22
2022-08-22T10:07:46.417Z,47.91
2022-08-22T10:08:47.390Z,46.62
2022-08-22T10:09:46.380Z,46.52
2022-08-22T10:10:46.370Z,47.41
2022-08-22T10:11:46.378Z,46.50
2022-08-22T10:12:46.392Z,46.08
2022-08-22T10:13:46.370Z,45.86
2022-08-22T10:14:51.173Z,44.56
2022-08-22T10:15:46.339Z,45.64
2022-08-22T10:16:46.327Z,44.85
2022-08-22T10:17:46.342Z,44.48
2022-08-22T10:18:53.269Z,45.07
2022-08-22T10:19:47.305Z,45.57
2022-08-22T10:20:46.295Z,44.85
2022-08-22T10:21:46.292Z,44.56
2022-08-22T10:22:46.311Z,44.75
2022-08-22T10:23:46.273Z,43.69
2022-08-22T10:24:46.266Z,44.92
2022-08-22T10:25:46.254Z,46.12
2022-08-22T10:26:46.256Z,45.75
2022-08-22T10:27:46.273Z,46.25
2022-08-22T10:28:46.241Z,47.34
2022-08-22T10:29:46.231Z,46.57
2022-08-22T10:30:46.224Z,46.37
2022-08-22T10:31:58.705Z,47.63
2022-08-22T10:32:47.232Z,47.02
2022-08-22T10:33:46.216Z,46.70
2022-08-22T10:34:46.191Z,47.07
2022-08-22T10:35:46.182Z,45.76
2022-08-22T10:36:46.176Z,45.15
2022-08-22T10:37:46.633Z,45.17
2022-08-22T10:38:47.007Z,44.56
2022-08-22T10:39:46.218Z,44.24
2022-08-22T10:40:46.142Z,44.43
2022-08-22T10:41:46.132Z,44.04
2022-08-22T10:42:46.150Z,43.74
2022-08-22T10:43:46.118Z,44.24
2022-08-22T10:44:46.111Z,44.14
2022-08-22T10:45:46.108Z,45.50
2022-08-22T10:46:46.095Z,44.32
2022-08-22T10:47:46.108Z,44.51
2022-08-22T10:48:46.152Z,43.62
2022-08-22T10:49:46.067Z,44.24
2022-08-22T10:50:47.063Z,45.74
2022-08-22T10:51:46.052Z,44.06
2022-08-22T10:52:46.071Z,45.01
2022-08-22T10:53:46.037Z,45.23
2022-08-22T10:54:46.038Z,44.86
2022-08-22T10:55:46.024Z,44.86
2022-08-22T10:56:46.017Z,45.90
2022-08-22T10:57:50.682Z,45.84
2022-08-22T10:58:47.998Z,45.15
2022-08-22T10:59:45.988Z,45.64
2022-08-22T11:00:49.694Z,45.74
2022-08-22T11:01:46.006Z,46.31
2022-08-22T11:02:45.994Z,45.16
2022-08-22T11:03:45.969Z,44.74
2022-08-22T11:04:45.959Z,44.02
2022-08-22T11:05:47.777Z,43.93
2022-08-22T11:06:45.946Z,43.80
2022-08-22T11:07:48.671Z,43.41
2022-08-22T11:08:45.923Z,43.80
2022-08-22T11:09:45.915Z,44.60
2022-08-22T11:10:45.896Z,44.78
2022-08-22T11:11:47.470Z,43.74
2022-08-22T11:12:45.908Z,43.52
2022-08-22T11:13:46.881Z,43.01
2022-08-22T11:14:45.877Z,42.52
2022-08-22T11:15:45.869Z,42.99
2022-08-22T11:16:45.909Z,44.27
2022-08-22T11:17:54.172Z,45.70
2022-08-22T11:19:02.453Z,45.50
2022-08-22T11:19:46.837Z,46.27
2022-08-22T11:20:45.827Z,43.87
2022-08-22T11:21:45.859Z,43.75
2022-08-22T11:22:45.816Z,42.49
2022-08-22T11:23:45.802Z,41.81
2022-08-22T11:24:56.624Z,42.49
2022-08-22T11:25:52.396Z,42.31
2022-08-22T11:26:47.733Z,44.11
2022-08-22T11:27:45.789Z,44.01
2022-08-22T11:28:45.777Z,43.70
2022-08-22T11:29:45.767Z,43.20
2022-08-22T11:30:45.756Z,43.28
2022-08-22T11:31:47.213Z,42.64
2022-08-22T11:32:46.769Z,42.40
2022-08-22T11:33:47.258Z,41.57
2022-08-22T11:34:45.738Z,41.65
2022-08-22T11:35:45.744Z,40.17
2022-08-22T11:36:46.429Z,42.03
2022-08-22T11:37:45.728Z,43.67
2022-08-22T11:38:45.704Z,43.75
2022-08-22T11:39:45.714Z,42.27
2022-08-22T11:40:45.683Z,43.55
2022-08-22T11:41:45.670Z,42.46
2022-08-22T11:42:47.448Z,43.65
2022-08-22T11:43:45.654Z,43.95
2022-08-22T11:44:50.689Z,43.70
2022-08-22T11:45:46.643Z,44.01
2022-08-22T11:46:45.637Z,43.84
2022-08-22T11:47:45.655Z,44.43
2022-08-22T11:48:47.792Z,44.90
2022-08-22T11:49:45.612Z,45.20
2022-08-22T11:50:45.614Z,44.51
2022-08-22T11:51:45.645Z,44.83
2022-08-22T11:52:51.785Z,46.02
2022-08-22T11:53:46.590Z,44.73
2022-08-22T11:54:45.589Z,44.83
2022-08-22T11:55:45.574Z,46.02
2022-08-22T11:56:45.592Z,46.09
2022-08-22T11:57:45.555Z,44.90
2022-08-22T11:58:45.551Z,45.50
2022-08-22T11:59:45.551Z,45.52
2022-08-22T12:00:45.533Z,46.22
2022-08-22T12:01:45.641Z,46.02
2022-08-22T12:02:45.514Z,45.72
2022-08-22T12:03:45.510Z,46.42
2022-08-22T12:04:46.517Z,45.12
2022-08-22T12:05:45.495Z,45.34
2022-08-22T12:06:45.512Z,46.02
2022-08-22T12:07:49.058Z,45.79
2022-08-22T12:08:47.471Z,43.95
2022-08-22T12:09:45.475Z,43.46
2022-08-22T12:10:46.453Z,42.86
2022-08-22T12:11:45.483Z,42.54
2022-08-22T12:12:45.442Z,42.54
2022-08-22T12:13:45.438Z,43.31
2022-08-22T12:14:45.426Z,42.01
2022-08-22T12:15:45.418Z,41.41
2022-08-22T12:16:47.465Z,41.91
2022-08-22T12:17:50.724Z,40.80
2022-08-22T12:18:46.412Z,41.06
2022-08-22T12:20:12.764Z,41.47
2022-08-22T12:20:47.392Z,41.87
2022-08-22T12:21:45.404Z,41.28
2022-08-22T12:22:49.719Z,41.46
2022-08-22T12:23:49.157Z,40.66
2022-08-22T12:24:45.363Z,41.28
2022-08-22T12:25:45.347Z,41.28
2022-08-22T12:26:45.394Z,41.46
2022-08-22T12:27:48.644Z,41.25
2022-08-22T12:28:46.324Z,41.24
2022-08-22T12:29:45.497Z,41.63
2022-08-22T12:30:45.310Z,41.24
2022-08-22T12:31:45.338Z,41.61
2022-08-22T12:32:45.670Z,41.12
2022-08-22T12:33:45.291Z,41.24
2022-08-22T12:34:45.304Z,41.18
2022-08-22T12:35:45.281Z,42.07
2022-08-22T12:36:45.293Z,41.60
2022-08-22T12:37:52.823Z,40.58
2022-08-22T12:38:46.256Z,41.08
2022-08-22T12:39:45.286Z,40.98
2022-08-22T12:40:45.237Z,40.34
2022-08-22T12:41:46.687Z,39.97
2022-08-22T12:42:46.067Z,40.86
2022-08-22T12:43:45.219Z,40.09